sensor_id;sensor_type;location;lat;lon;timestamp;P1;durP1;ratioP1;P2;durP2;ratioP2
47844;SDS011;33605;48.822;8.796;2023-06-14T00:01:35;5.17;;;4.67;;
47844;SDS011;33605;48.822;8.796;2023-06-14T00:04:01;4.83;;;4.33;;
47844;SDS011;33605;48.822;8.796;2023-06-14T00:06:28;4.80;;;4.37;;
47844;SDS011;33605;48.822;8.796;2023-06-14T00:08:53;5.17;;;4.50;;
47844;SDS011;33605;48.822;8.796;2023-06-14T00:11:19;4.17;;;3.70;;
47844;SDS011;33605;48.822;8.796;2023-06-14T00:13:45;4.33;;;3.93;;
47844;SDS011;33605;48.822;8.796;2023-06-14T00:16:11;5.13;;;4.60;;
47844;SDS011;33605;48.822;8.796;2023-06-14T00:18:37;6.80;;;4.80;;
47844;SDS011;33605;48.822;8.796;2023-06-14T00:21:03;4.87;;;4.40;;
47844;SDS011;33605;48.822;8.796;2023-06-14T00:23:29;5.33;;;4.40;;
47844;SDS011;33605;48.822;8.796;2023-06-14T00:25:55;5.70;;;4.30;;
47844;SDS011;33605;48.822;8.796;2023-06-14T00:28:20;5.70;;;4.40;;
47844;SDS011;33605;48.822;8.796;2023-06-14T00:30:46;5.20;;;4.70;;
47844;SDS011;33605;48.822;8.796;2023-06-14T00:33:12;4.60;;;3.97;;
47844;SDS011;33605;48.822;8.796;2023-06-14T00:35:37;4.40;;;4.00;;
47844;SDS011;33605;48.822;8.796;2023-06-14T00:38:03;4.57;;;4.17;;
47844;SDS011;33605;48.822;8.796;2023-06-14T00:40:29;4.93;;;3.73;;
47844;SDS011;33605;48.822;8.796;2023-06-14T00:42:54;5.03;;;4.30;;
47844;SDS011;33605;48.822;8.796;2023-06-14T00:45:20;4.70;;;4.17;;
47844;SDS011;33605;48.822;8.796;2023-06-14T00:47:46;6.73;;;4.33;;
47844;SDS011;33605;48.822;8.796;2023-06-14T00:50:12;4.77;;;4.33;;
47844;SDS011;33605;48.822;8.796;2023-06-14T00:52:38;5.83;;;4.37;;
47844;SDS011;33605;48.822;8.796;2023-06-14T00:55:04;4.50;;;4.10;;
47844;SDS011;33605;48.822;8.796;2023-06-14T00:57:31;4.53;;;4.13;;
47844;SDS011;33605;48.822;8.796;2023-06-14T00:59:56;4.60;;;4.17;;
47844;SDS011;33605;48.822;8.796;2023-06-14T01:02:22;5.10;;;4.60;;
47844;SDS011;33605;48.822;8.796;2023-06-14T01:04:49;3.87;;;3.50;;
47844;SDS011;33605;48.822;8.796;2023-06-14T01:07:20;6.80;;;4.50;;
47844;SDS011;33605;48.822;8.796;2023-06-14T01:15:23;5.43;;;4.27;;
47844;SDS011;33605;48.822;8.796;2023-06-14T01:17:51;4.00;;;3.60;;
47844;SDS011;33605;48.822;8.796;2023-06-14T01:20:21;4.70;;;4.23;;
47844;SDS011;33605;48.822;8.796;2023-06-14T01:22:50;5.67;;;5.07;;
47844;SDS011;33605;48.822;8.796;2023-06-14T01:25:17;5.20;;;4.70;;
47844;SDS011;33605;48.822;8.796;2023-06-14T01:27:46;6.47;;;5.23;;
47844;SDS011;33605;48.822;8.796;2023-06-14T01:30:14;6.57;;;4.77;;
47844;SDS011;33605;48.822;8.796;2023-06-14T01:32:40;5.33;;;4.83;;
47844;SDS011;33605;48.822;8.796;2023-06-14T01:35:06;5.60;;;4.77;;
47844;SDS011;33605;48.822;8.796;2023-06-14T01:37:32;4.53;;;4.13;;
47844;SDS011;33605;48.822;8.796;2023-06-14T01:39:58;5.37;;;4.60;;
47844;SDS011;33605;48.822;8.796;2023-06-14T01:42:24;5.30;;;4.30;;
47844;SDS011;33605;48.822;8.796;2023-06-14T01:44:51;8.40;;;4.67;;
47844;SDS011;33605;48.822;8.796;2023-06-14T01:47:18;5.00;;;4.33;;
47844;SDS011;33605;48.822;8.796;2023-06-14T01:49:45;5.50;;;4.90;;
47844;SDS011;33605;48.822;8.796;2023-06-14T01:52:11;5.30;;;4.03;;
47844;SDS011;33605;48.822;8.796;2023-06-14T01:54:37;5.77;;;4.90;;
47844;SDS011;33605;48.822;8.796;2023-06-14T01:57:06;4.87;;;4.13;;
47844;SDS011;33605;48.822;8.796;2023-06-14T01:59:33;4.63;;;4.23;;
47844;SDS011;33605;48.822;8.796;2023-06-14T02:01:59;8.47;;;4.60;;
47844;SDS011;33605;48.822;8.796;2023-06-14T02:04:26;6.10;;;4.60;;
47844;SDS011;33605;48.822;8.796;2023-06-14T02:06:52;5.53;;;4.93;;
47844;SDS011;33605;48.822;8.796;2023-06-14T02:09:18;4.70;;;4.30;;
47844;SDS011;33605;48.822;8.796;2023-06-14T02:11:43;4.60;;;4.20;;
47844;SDS011;33605;48.822;8.796;2023-06-14T02:14:09;4.93;;;4.23;;
47844;SDS011;33605;48.822;8.796;2023-06-14T02:16:36;4.70;;;4.00;;
47844;SDS011;33605;48.822;8.796;2023-06-14T02:19:03;4.83;;;4.30;;
47844;SDS011;33605;48.822;8.796;2023-06-14T02:21:30;6.20;;;4.67;;
47844;SDS011;33605;48.822;8.796;2023-06-14T02:23:56;4.67;;;4.10;;
47844;SDS011;33605;48.822;8.796;2023-06-14T02:26:23;5.70;;;5.17;;
47844;SDS011;33605;48.822;8.796;2023-06-14T02:28:49;5.37;;;4.90;;
47844;SDS011;33605;48.822;8.796;2023-06-14T02:31:14;5.17;;;4.67;;
47844;SDS011;33605;48.822;8.796;2023-06-14T02:33:41;5.67;;;3.90;;
47844;SDS011;33605;48.822;8.796;2023-06-14T02:36:07;6.30;;;5.10;;
47844;SDS011;33605;48.822;8.796;2023-06-14T02:38:32;5.43;;;4.30;;
47844;SDS011;33605;48.822;8.796;2023-06-14T02:40:58;4.83;;;4.30;;
47844;SDS011;33605;48.822;8.796;2023-06-14T02:43:26;4.97;;;4.30;;
47844;SDS011;33605;48.822;8.796;2023-06-14T02:45:53;5.03;;;4.50;;
47844;SDS011;33605;48.822;8.796;2023-06-14T02:48:19;5.37;;;4.37;;
47844;SDS011;33605;48.822;8.796;2023-06-14T02:50:45;10.00;;;6.10;;
47844;SDS011;33605;48.822;8.796;2023-06-14T02:53:10;5.13;;;4.30;;
47844;SDS011;33605;48.822;8.796;2023-06-14T02:55:37;5.90;;;4.90;;
47844;SDS011;33605;48.822;8.796;2023-06-14T02:58:04;4.83;;;4.33;;
47844;SDS011;33605;48.822;8.796;2023-06-14T03:00:30;7.10;;;5.10;;
47844;SDS011;33605;48.822;8.796;2023-06-14T03:02:56;4.97;;;4.47;;
47844;SDS011;33605;48.822;8.796;2023-06-14T03:05:22;6.40;;;5.00;;
47844;SDS011;33605;48.822;8.796;2023-06-14T03:07:48;5.33;;;4.43;;
47844;SDS011;33605;48.822;8.796;2023-06-14T03:10:15;6.17;;;4.53;;
47844;SDS011;33605;48.822;8.796;2023-06-14T03:12:41;7.37;;;5.00;;
47844;SDS011;33605;48.822;8.796;2023-06-14T03:15:07;5.80;;;5.00;;
47844;SDS011;33605;48.822;8.796;2023-06-14T03:17:34;4.70;;;4.20;;
47844;SDS011;33605;48.822;8.796;2023-06-14T03:20:00;6.40;;;4.93;;
47844;SDS011;33605;48.822;8.796;2023-06-14T03:22:26;5.97;;;5.20;;
47844;SDS011;33605;48.822;8.796;2023-06-14T03:24:52;5.70;;;4.77;;
47844;SDS011;33605;48.822;8.796;2023-06-14T03:27:19;6.27;;;4.60;;
47844;SDS011;33605;48.822;8.796;2023-06-14T03:29:44;5.77;;;5.17;;
47844;SDS011;33605;48.822;8.796;2023-06-14T03:32:10;4.93;;;4.43;;
47844;SDS011;33605;48.822;8.796;2023-06-14T03:34:35;4.80;;;4.30;;
47844;SDS011;33605;48.822;8.796;2023-06-14T03:37:03;6.07;;;4.50;;
47844;SDS011;33605;48.822;8.796;2023-06-14T03:39:29;4.93;;;4.43;;
47844;SDS011;33605;48.822;8.796;2023-06-14T03:41:55;5.50;;;4.90;;
47844;SDS011;33605;48.822;8.796;2023-06-14T03:44:21;5.90;;;4.73;;
47844;SDS011;33605;48.822;8.796;2023-06-14T03:46:46;7.97;;;4.93;;
47844;SDS011;33605;48.822;8.796;2023-06-14T03:49:12;6.67;;;5.10;;
47844;SDS011;33605;48.822;8.796;2023-06-14T03:51:39;5.27;;;4.67;;
47844;SDS011;33605;48.822;8.796;2023-06-14T03:54:05;4.43;;;4.03;;
47844;SDS011;33605;48.822;8.796;2023-06-14T03:56:31;5.20;;;4.70;;
47844;SDS011;33605;48.822;8.796;2023-06-14T03:58:56;5.87;;;5.27;;
47844;SDS011;33605;48.822;8.796;2023-06-14T04:01:22;5.30;;;4.80;;
47844;SDS011;33605;48.822;8.796;2023-06-14T04:03:52;5.63;;;5.03;;
47844;SDS011;33605;48.822;8.796;2023-06-14T04:06:17;7.00;;;5.30;;
47844;SDS011;33605;48.822;8.796;2023-06-14T04:08:44;7.97;;;4.97;;
47844;SDS011;33605;48.822;8.796;2023-06-14T04:11:10;16.70;;;5.53;;
47844;SDS011;33605;48.822;8.796;2023-06-14T04:13:36;6.10;;;4.67;;
47844;SDS011;33605;48.822;8.796;2023-06-14T04:16:04;5.90;;;4.67;;
47844;SDS011;33605;48.822;8.796;2023-06-14T04:18:30;4.70;;;4.30;;
47844;SDS011;33605;48.822;8.796;2023-06-14T04:20:55;6.13;;;5.23;;
47844;SDS011;33605;48.822;8.796;2023-06-14T04:23:21;6.40;;;4.50;;
47844;SDS011;33605;48.822;8.796;2023-06-14T04:25:47;7.57;;;5.10;;
47844;SDS011;33605;48.822;8.796;2023-06-14T04:28:14;6.63;;;4.80;;
47844;SDS011;33605;48.822;8.796;2023-06-14T04:30:41;6.20;;;5.23;;
47844;SDS011;33605;48.822;8.796;2023-06-14T04:33:07;6.37;;;4.77;;
47844;SDS011;33605;48.822;8.796;2023-06-14T04:35:34;9.73;;;5.33;;
47844;SDS011;33605;48.822;8.796;2023-06-14T04:38:01;5.70;;;5.20;;
47844;SDS011;33605;48.822;8.796;2023-06-14T04:40:29;7.00;;;5.27;;
47844;SDS011;33605;48.822;8.796;2023-06-14T04:42:55;7.53;;;5.80;;
47844;SDS011;33605;48.822;8.796;2023-06-14T04:45:22;8.90;;;5.10;;
47844;SDS011;33605;48.822;8.796;2023-06-14T04:47:48;5.63;;;4.53;;
47844;SDS011;33605;48.822;8.796;2023-06-14T04:50:15;6.97;;;5.20;;
47844;SDS011;33605;48.822;8.796;2023-06-14T04:52:42;6.73;;;5.00;;
47844;SDS011;33605;48.822;8.796;2023-06-14T04:55:08;7.83;;;4.80;;
47844;SDS011;33605;48.822;8.796;2023-06-14T04:57:33;7.70;;;4.53;;
47844;SDS011;33605;48.822;8.796;2023-06-14T05:00:00;5.80;;;4.73;;
47844;SDS011;33605;48.822;8.796;2023-06-14T05:02:26;5.57;;;5.00;;
47844;SDS011;33605;48.822;8.796;2023-06-14T05:04:52;5.87;;;5.27;;
47844;SDS011;33605;48.822;8.796;2023-06-14T05:07:18;7.33;;;5.00;;
47844;SDS011;33605;48.822;8.796;2023-06-14T05:09:45;7.43;;;5.40;;
47844;SDS011;33605;48.822;8.796;2023-06-14T05:12:10;5.13;;;4.70;;
47844;SDS011;33605;48.822;8.796;2023-06-14T05:14:36;4.97;;;4.53;;
47844;SDS011;33605;48.822;8.796;2023-06-14T05:17:02;5.00;;;4.53;;
47844;SDS011;33605;48.822;8.796;2023-06-14T05:19:27;5.23;;;4.33;;
47844;SDS011;33605;48.822;8.796;2023-06-14T05:21:53;5.97;;;4.80;;
47844;SDS011;33605;48.822;8.796;2023-06-14T05:24:19;5.37;;;4.10;;
47844;SDS011;33605;48.822;8.796;2023-06-14T05:26:46;6.40;;;5.60;;
47844;SDS011;33605;48.822;8.796;2023-06-14T05:29:12;6.47;;;5.23;;
47844;SDS011;33605;48.822;8.796;2023-06-14T05:31:38;8.17;;;5.17;;
47844;SDS011;33605;48.822;8.796;2023-06-14T05:34:04;10.00;;;5.93;;
47844;SDS011;33605;48.822;8.796;2023-06-14T05:36:30;5.77;;;5.10;;
47844;SDS011;33605;48.822;8.796;2023-06-14T05:38:56;6.17;;;4.77;;
47844;SDS011;33605;48.822;8.796;2023-06-14T05:41:26;9.13;;;5.50;;
47844;SDS011;33605;48.822;8.796;2023-06-14T05:43:53;5.40;;;4.97;;
47844;SDS011;33605;48.822;8.796;2023-06-14T05:46:20;7.50;;;4.80;;
47844;SDS011;33605;48.822;8.796;2023-06-14T05:48:49;7.60;;;5.27;;
47844;SDS011;33605;48.822;8.796;2023-06-14T05:51:15;6.40;;;5.00;;
47844;SDS011;33605;48.822;8.796;2023-06-14T05:53:44;6.23;;;4.93;;
47844;SDS011;33605;48.822;8.796;2023-06-14T05:56:11;5.73;;;5.23;;
47844;SDS011;33605;48.822;8.796;2023-06-14T05:58:37;8.50;;;4.70;;
47844;SDS011;33605;48.822;8.796;2023-06-14T06:01:03;7.70;;;5.70;;
47844;SDS011;33605;48.822;8.796;2023-06-14T06:03:29;7.53;;;6.00;;
47844;SDS011;33605;48.822;8.796;2023-06-14T06:05:55;9.00;;;6.57;;
47844;SDS011;33605;48.822;8.796;2023-06-14T06:08:21;6.63;;;6.03;;
47844;SDS011;33605;48.822;8.796;2023-06-14T06:10:47;7.50;;;6.00;;
47844;SDS011;33605;48.822;8.796;2023-06-14T06:13:13;10.40;;;6.10;;
47844;SDS011;33605;48.822;8.796;2023-06-14T06:15:39;6.30;;;5.70;;
47844;SDS011;33605;48.822;8.796;2023-06-14T06:18:05;6.57;;;5.00;;
47844;SDS011;33605;48.822;8.796;2023-06-14T06:20:31;5.90;;;5.20;;
47844;SDS011;33605;48.822;8.796;2023-06-14T06:22:57;6.60;;;5.67;;
47844;SDS011;33605;48.822;8.796;2023-06-14T06:25:24;5.60;;;4.80;;
47844;SDS011;33605;48.822;8.796;2023-06-14T06:27:51;10.70;;;5.87;;
47844;SDS011;33605;48.822;8.796;2023-06-14T06:30:18;7.10;;;5.40;;
47844;SDS011;33605;48.822;8.796;2023-06-14T06:32:44;9.33;;;5.87;;
47844;SDS011;33605;48.822;8.796;2023-06-14T06:35:10;6.03;;;5.50;;
47844;SDS011;33605;48.822;8.796;2023-06-14T06:37:36;5.90;;;4.80;;
47844;SDS011;33605;48.822;8.796;2023-06-14T06:40:02;5.50;;;5.00;;
47844;SDS011;33605;48.822;8.796;2023-06-14T06:42:30;7.00;;;5.40;;
47844;SDS011;33605;48.822;8.796;2023-06-14T06:44:56;10.23;;;5.50;;
47844;SDS011;33605;48.822;8.796;2023-06-14T06:47:22;6.50;;;5.37;;
47844;SDS011;33605;48.822;8.796;2023-06-14T06:49:48;6.13;;;5.53;;
47844;SDS011;33605;48.822;8.796;2023-06-14T06:52:14;5.83;;;5.33;;
47844;SDS011;33605;48.822;8.796;2023-06-14T06:54:40;5.97;;;5.37;;
47844;SDS011;33605;48.822;8.796;2023-06-14T06:57:06;6.77;;;5.07;;
47844;SDS011;33605;48.822;8.796;2023-06-14T06:59:32;5.90;;;5.30;;
47844;SDS011;33605;48.822;8.796;2023-06-14T07:01:58;5.93;;;5.17;;
47844;SDS011;33605;48.822;8.796;2023-06-14T07:04:24;10.60;;;5.70;;
47844;SDS011;33605;48.822;8.796;2023-06-14T07:06:50;5.23;;;4.73;;
47844;SDS011;33605;48.822;8.796;2023-06-14T07:09:16;7.87;;;5.07;;
47844;SDS011;33605;48.822;8.796;2023-06-14T07:11:44;5.40;;;4.90;;
47844;SDS011;33605;48.822;8.796;2023-06-14T07:14:11;5.93;;;4.77;;
47844;SDS011;33605;48.822;8.796;2023-06-14T07:16:37;6.70;;;5.33;;
47844;SDS011;33605;48.822;8.796;2023-06-14T07:19:03;6.03;;;4.50;;
47844;SDS011;33605;48.822;8.796;2023-06-14T07:21:29;7.80;;;5.27;;
47844;SDS011;33605;48.822;8.796;2023-06-14T07:23:55;5.93;;;5.33;;
47844;SDS011;33605;48.822;8.796;2023-06-14T07:26:21;7.27;;;5.27;;
47844;SDS011;33605;48.822;8.796;2023-06-14T07:28:47;8.37;;;5.23;;
47844;SDS011;33605;48.822;8.796;2023-06-14T07:31:14;6.57;;;5.87;;
47844;SDS011;33605;48.822;8.796;2023-06-14T07:33:40;7.03;;;4.97;;
47844;SDS011;33605;48.822;8.796;2023-06-14T07:36:06;10.80;;;6.50;;
47844;SDS011;33605;48.822;8.796;2023-06-14T07:38:33;5.80;;;5.20;;
47844;SDS011;33605;48.822;8.796;2023-06-14T07:40:59;7.50;;;5.70;;
47844;SDS011;33605;48.822;8.796;2023-06-14T07:43:25;6.33;;;5.70;;
47844;SDS011;33605;48.822;8.796;2023-06-14T07:45:51;7.37;;;5.23;;
47844;SDS011;33605;48.822;8.796;2023-06-14T07:48:17;8.20;;;5.03;;
47844;SDS011;33605;48.822;8.796;2023-06-14T07:50:43;6.30;;;4.63;;
47844;SDS011;33605;48.822;8.796;2023-06-14T07:53:10;5.70;;;5.17;;
47844;SDS011;33605;48.822;8.796;2023-06-14T07:55:35;6.63;;;5.57;;
47844;SDS011;33605;48.822;8.796;2023-06-14T07:58:05;6.63;;;5.27;;
47844;SDS011;33605;48.822;8.796;2023-06-14T08:00:32;5.40;;;4.90;;
47844;SDS011;33605;48.822;8.796;2023-06-14T08:02:58;6.17;;;5.17;;
47844;SDS011;33605;48.822;8.796;2023-06-14T08:05:24;5.77;;;5.00;;
47844;SDS011;33605;48.822;8.796;2023-06-14T08:07:53;6.03;;;5.43;;
47844;SDS011;33605;48.822;8.796;2023-06-14T08:10:19;5.97;;;5.37;;
47844;SDS011;33605;48.822;8.796;2023-06-14T08:12:45;5.57;;;5.07;;
47844;SDS011;33605;48.822;8.796;2023-06-14T08:15:11;8.10;;;5.20;;
47844;SDS011;33605;48.822;8.796;2023-06-14T08:17:37;10.33;;;5.40;;
47844;SDS011;33605;48.822;8.796;2023-06-14T08:20:04;5.70;;;5.07;;
47844;SDS011;33605;48.822;8.796;2023-06-14T08:22:31;6.30;;;5.70;;
47844;SDS011;33605;48.822;8.796;2023-06-14T08:24:59;6.60;;;5.90;;
47844;SDS011;33605;48.822;8.796;2023-06-14T08:27:26;5.50;;;5.00;;
47844;SDS011;33605;48.822;8.796;2023-06-14T08:29:52;5.90;;;5.40;;
47844;SDS011;33605;48.822;8.796;2023-06-14T08:32:18;7.53;;;5.77;;
47844;SDS011;33605;48.822;8.796;2023-06-14T08:34:44;6.17;;;5.37;;
47844;SDS011;33605;48.822;8.796;2023-06-14T08:37:10;6.30;;;5.23;;
47844;SDS011;33605;48.822;8.796;2023-06-14T08:39:36;7.57;;;5.33;;
47844;SDS011;33605;48.822;8.796;2023-06-14T08:42:02;6.43;;;5.03;;
47844;SDS011;33605;48.822;8.796;2023-06-14T08:44:28;10.07;;;5.77;;
47844;SDS011;33605;48.822;8.796;2023-06-14T08:46:55;6.27;;;5.63;;
47844;SDS011;33605;48.822;8.796;2023-06-14T08:49:25;8.30;;;5.60;;
47844;SDS011;33605;48.822;8.796;2023-06-14T08:51:56;6.77;;;5.03;;
47844;SDS011;33605;48.822;8.796;2023-06-14T08:54:23;7.43;;;5.33;;
47844;SDS011;33605;48.822;8.796;2023-06-14T08:56:52;5.43;;;4.93;;
47844;SDS011;33605;48.822;8.796;2023-06-14T08:59:18;6.10;;;5.10;;
47844;SDS011;33605;48.822;8.796;2023-06-14T09:01:46;6.17;;;5.57;;
47844;SDS011;33605;48.822;8.796;2023-06-14T09:04:12;5.60;;;5.10;;
47844;SDS011;33605;48.822;8.796;2023-06-14T09:06:38;8.40;;;5.43;;
47844;SDS011;33605;48.822;8.796;2023-06-14T09:09:05;4.97;;;4.57;;
47844;SDS011;33605;48.822;8.796;2023-06-14T09:11:32;8.07;;;5.37;;
47844;SDS011;33605;48.822;8.796;2023-06-14T09:13:58;5.27;;;4.83;;
47844;SDS011;33605;48.822;8.796;2023-06-14T09:16:25;6.93;;;4.73;;
47844;SDS011;33605;48.822;8.796;2023-06-14T09:18:51;8.73;;;6.17;;
47844;SDS011;33605;48.822;8.796;2023-06-14T09:21:17;6.23;;;4.70;;
47844;SDS011;33605;48.822;8.796;2023-06-14T09:23:44;5.47;;;4.97;;
47844;SDS011;33605;48.822;8.796;2023-06-14T09:26:14;7.57;;;5.77;;
47844;SDS011;33605;48.822;8.796;2023-06-14T09:28:44;6.30;;;5.70;;
47844;SDS011;33605;48.822;8.796;2023-06-14T09:31:14;6.50;;;5.80;;
47844;SDS011;33605;48.822;8.796;2023-06-14T09:33:44;5.80;;;4.80;;
47844;SDS011;33605;48.822;8.796;2023-06-14T09:36:23;5.73;;;5.23;;
47844;SDS011;33605;48.822;8.796;2023-06-14T09:38:55;6.63;;;4.80;;
47844;SDS011;33605;48.822;8.796;2023-06-14T09:41:40;6.97;;;4.90;;
47844;SDS011;33605;48.822;8.796;2023-06-14T09:44:08;8.60;;;5.40;;
47844;SDS011;33605;48.822;8.796;2023-06-14T09:46:34;5.40;;;4.90;;
47844;SDS011;33605;48.822;8.796;2023-06-14T09:49:01;7.53;;;5.00;;
47844;SDS011;33605;48.822;8.796;2023-06-14T09:51:27;5.40;;;4.90;;
47844;SDS011;33605;48.822;8.796;2023-06-14T09:54:01;5.53;;;4.77;;
47844;SDS011;33605;48.822;8.796;2023-06-14T09:56:29;5.37;;;4.67;;
47844;SDS011;33605;48.822;8.796;2023-06-14T09:58:57;6.47;;;5.80;;
47844;SDS011;33605;48.822;8.796;2023-06-14T10:01:24;4.60;;;4.20;;
47844;SDS011;33605;48.822;8.796;2023-06-14T10:03:52;6.33;;;5.40;;
47844;SDS011;33605;48.822;8.796;2023-06-14T10:06:20;9.90;;;6.20;;
47844;SDS011;33605;48.822;8.796;2023-06-14T10:08:50;5.50;;;5.00;;
47844;SDS011;33605;48.822;8.796;2023-06-14T10:11:17;6.30;;;4.97;;
47844;SDS011;33605;48.822;8.796;2023-06-14T10:13:43;5.93;;;4.97;;
47844;SDS011;33605;48.822;8.796;2023-06-14T10:16:12;7.40;;;5.10;;
47844;SDS011;33605;48.822;8.796;2023-06-14T10:18:42;5.03;;;4.40;;
47844;SDS011;33605;48.822;8.796;2023-06-14T10:23:56;7.07;;;4.97;;
47844;SDS011;33605;48.822;8.796;2023-06-14T10:26:23;5.67;;;4.97;;
47844;SDS011;33605;48.822;8.796;2023-06-14T10:28:59;5.23;;;4.73;;
47844;SDS011;33605;48.822;8.796;2023-06-14T10:34:07;8.17;;;5.07;;
47844;SDS011;33605;48.822;8.796;2023-06-14T10:36:33;4.43;;;3.93;;
47844;SDS011;33605;48.822;8.796;2023-06-14T10:39:16;5.23;;;4.73;;
47844;SDS011;33605;48.822;8.796;2023-06-14T10:41:52;5.00;;;4.10;;
47844;SDS011;33605;48.822;8.796;2023-06-14T10:46:53;5.10;;;4.60;;
47844;SDS011;33605;48.822;8.796;2023-06-14T10:49:22;4.33;;;3.93;;
47844;SDS011;33605;48.822;8.796;2023-06-14T10:52:05;4.63;;;4.23;;
47844;SDS011;33605;48.822;8.796;2023-06-14T10:54:36;12.23;;;5.10;;
47844;SDS011;33605;48.822;8.796;2023-06-14T10:57:02;6.70;;;4.30;;
47844;SDS011;33605;48.822;8.796;2023-06-14T10:59:32;7.20;;;4.90;;
47844;SDS011;33605;48.822;8.796;2023-06-14T11:04:50;5.60;;;4.60;;
47844;SDS011;33605;48.822;8.796;2023-06-14T11:12:35;4.60;;;4.20;;
47844;SDS011;33605;48.822;8.796;2023-06-14T11:15:02;5.30;;;4.63;;
47844;SDS011;33605;48.822;8.796;2023-06-14T11:17:28;6.20;;;3.83;;
47844;SDS011;33605;48.822;8.796;2023-06-14T11:20:11;5.13;;;4.40;;
47844;SDS011;33605;48.822;8.796;2023-06-14T11:22:41;5.53;;;4.23;;
47844;SDS011;33605;48.822;8.796;2023-06-14T11:25:11;4.90;;;4.40;;
47844;SDS011;33605;48.822;8.796;2023-06-14T11:27:37;6.03;;;4.40;;
47844;SDS011;33605;48.822;8.796;2023-06-14T11:30:03;7.30;;;4.70;;
47844;SDS011;33605;48.822;8.796;2023-06-14T11:32:31;6.20;;;4.20;;
47844;SDS011;33605;48.822;8.796;2023-06-14T11:34:57;4.63;;;4.23;;
47844;SDS011;33605;48.822;8.796;2023-06-14T11:37:25;4.83;;;4.17;;
47844;SDS011;33605;48.822;8.796;2023-06-14T11:39:51;8.23;;;4.67;;
47844;SDS011;33605;48.822;8.796;2023-06-14T11:42:17;4.73;;;4.33;;
47844;SDS011;33605;48.822;8.796;2023-06-14T11:44:46;5.50;;;4.10;;
47844;SDS011;33605;48.822;8.796;2023-06-14T11:47:12;4.90;;;4.30;;
47844;SDS011;33605;48.822;8.796;2023-06-14T11:49:38;5.30;;;4.60;;
47844;SDS011;33605;48.822;8.796;2023-06-14T11:52:04;7.77;;;4.90;;
47844;SDS011;33605;48.822;8.796;2023-06-14T11:54:31;4.30;;;3.90;;
47844;SDS011;33605;48.822;8.796;2023-06-14T11:56:58;4.70;;;4.30;;
47844;SDS011;33605;48.822;8.796;2023-06-14T11:59:24;4.57;;;4.17;;
47844;SDS011;33605;48.822;8.796;2023-06-14T12:01:50;5.37;;;4.23;;
47844;SDS011;33605;48.822;8.796;2023-06-14T12:04:24;8.20;;;4.60;;
47844;SDS011;33605;48.822;8.796;2023-06-14T12:06:52;7.30;;;4.53;;
47844;SDS011;33605;48.822;8.796;2023-06-14T12:09:20;5.00;;;4.50;;
47844;SDS011;33605;48.822;8.796;2023-06-14T12:11:51;4.10;;;3.80;;
47844;SDS011;33605;48.822;8.796;2023-06-14T12:14:30;8.37;;;4.50;;
47844;SDS011;33605;48.822;8.796;2023-06-14T12:17:16;5.67;;;3.50;;
47844;SDS011;33605;48.822;8.796;2023-06-14T12:19:42;5.73;;;4.30;;
47844;SDS011;33605;48.822;8.796;2023-06-14T12:22:09;8.13;;;5.47;;
47844;SDS011;33605;48.822;8.796;2023-06-14T12:24:35;5.87;;;4.27;;
47844;SDS011;33605;48.822;8.796;2023-06-14T12:27:01;4.53;;;4.07;;
47844;SDS011;33605;48.822;8.796;2023-06-14T12:29:31;6.10;;;3.90;;
47844;SDS011;33605;48.822;8.796;2023-06-14T12:31:57;5.40;;;4.30;;
47844;SDS011;33605;48.822;8.796;2023-06-14T12:34:23;5.53;;;3.97;;
47844;SDS011;33605;48.822;8.796;2023-06-14T12:36:52;5.23;;;4.67;;
47844;SDS011;33605;48.822;8.796;2023-06-14T12:39:19;4.60;;;4.20;;
47844;SDS011;33605;48.822;8.796;2023-06-14T12:41:45;4.93;;;4.47;;
47844;SDS011;33605;48.822;8.796;2023-06-14T12:44:12;4.40;;;4.00;;
47844;SDS011;33605;48.822;8.796;2023-06-14T12:46:38;8.63;;;4.50;;
47844;SDS011;33605;48.822;8.796;2023-06-14T12:49:05;4.40;;;4.00;;
47844;SDS011;33605;48.822;8.796;2023-06-14T12:51:32;4.40;;;4.00;;
47844;SDS011;33605;48.822;8.796;2023-06-14T12:53:58;4.60;;;4.10;;
47844;SDS011;33605;48.822;8.796;2023-06-14T12:56:24;10.20;;;4.10;;
47844;SDS011;33605;48.822;8.796;2023-06-14T12:58:51;4.60;;;4.10;;
47844;SDS011;33605;48.822;8.796;2023-06-14T13:01:17;10.30;;;4.40;;
47844;SDS011;33605;48.822;8.796;2023-06-14T13:03:43;5.60;;;3.93;;
47844;SDS011;33605;48.822;8.796;2023-06-14T13:06:09;5.20;;;4.70;;
47844;SDS011;33605;48.822;8.796;2023-06-14T13:08:35;5.13;;;4.33;;
47844;SDS011;33605;48.822;8.796;2023-06-14T13:11:01;5.20;;;4.27;;
47844;SDS011;33605;48.822;8.796;2023-06-14T13:13:27;4.20;;;3.80;;
47844;SDS011;33605;48.822;8.796;2023-06-14T13:15:53;5.73;;;4.33;;
47844;SDS011;33605;48.822;8.796;2023-06-14T13:18:18;4.20;;;3.80;;
47844;SDS011;33605;48.822;8.796;2023-06-14T13:20:45;4.83;;;4.30;;
47844;SDS011;33605;48.822;8.796;2023-06-14T13:23:11;3.97;;;3.67;;
47844;SDS011;33605;48.822;8.796;2023-06-14T13:25:37;5.07;;;4.07;;
47844;SDS011;33605;48.822;8.796;2023-06-14T13:28:04;4.63;;;3.60;;
47844;SDS011;33605;48.822;8.796;2023-06-14T13:30:30;4.83;;;4.33;;
47844;SDS011;33605;48.822;8.796;2023-06-14T13:32:57;4.10;;;3.73;;
47844;SDS011;33605;48.822;8.796;2023-06-14T13:35:23;5.30;;;4.70;;
47844;SDS011;33605;48.822;8.796;2023-06-14T13:37:49;4.43;;;4.03;;
47844;SDS011;33605;48.822;8.796;2023-06-14T13:40:15;4.63;;;3.90;;
47844;SDS011;33605;48.822;8.796;2023-06-14T13:42:41;7.27;;;4.03;;
47844;SDS011;33605;48.822;8.796;2023-06-14T13:45:08;8.17;;;4.10;;
47844;SDS011;33605;48.822;8.796;2023-06-14T13:47:34;4.70;;;4.13;;
47844;SDS011;33605;48.822;8.796;2023-06-14T13:50:00;5.37;;;3.67;;
47844;SDS011;33605;48.822;8.796;2023-06-14T13:52:26;4.50;;;4.03;;
47844;SDS011;33605;48.822;8.796;2023-06-14T13:54:52;4.30;;;4.00;;
47844;SDS011;33605;48.822;8.796;2023-06-14T13:57:18;4.57;;;4.13;;
47844;SDS011;33605;48.822;8.796;2023-06-14T13:59:44;4.10;;;3.70;;
47844;SDS011;33605;48.822;8.796;2023-06-14T14:02:11;9.40;;;4.00;;
47844;SDS011;33605;48.822;8.796;2023-06-14T14:04:36;4.60;;;4.20;;
47844;SDS011;33605;48.822;8.796;2023-06-14T14:07:03;3.70;;;3.40;;
47844;SDS011;33605;48.822;8.796;2023-06-14T14:09:30;6.10;;;4.93;;
47844;SDS011;33605;48.822;8.796;2023-06-14T14:11:57;5.53;;;4.30;;
47844;SDS011;33605;48.822;8.796;2023-06-14T14:14:23;4.70;;;4.30;;
47844;SDS011;33605;48.822;8.796;2023-06-14T14:16:49;9.60;;;3.80;;
47844;SDS011;33605;48.822;8.796;2023-06-14T14:19:20;3.70;;;3.40;;
47844;SDS011;33605;48.822;8.796;2023-06-14T14:21:46;4.77;;;4.37;;
47844;SDS011;33605;48.822;8.796;2023-06-14T14:24:12;4.00;;;3.70;;
47844;SDS011;33605;48.822;8.796;2023-06-14T14:26:38;4.20;;;3.80;;
47844;SDS011;33605;48.822;8.796;2023-06-14T14:29:04;6.57;;;4.33;;
47844;SDS011;33605;48.822;8.796;2023-06-14T14:31:30;4.23;;;3.80;;
47844;SDS011;33605;48.822;8.796;2023-06-14T14:33:56;6.03;;;3.90;;
47844;SDS011;33605;48.822;8.796;2023-06-14T14:36:22;4.70;;;4.30;;
47844;SDS011;33605;48.822;8.796;2023-06-14T14:38:48;4.27;;;3.87;;
47844;SDS011;33605;48.822;8.796;2023-06-14T14:41:14;4.53;;;3.80;;
47844;SDS011;33605;48.822;8.796;2023-06-14T14:43:40;6.27;;;3.80;;
47844;SDS011;33605;48.822;8.796;2023-06-14T14:46:06;4.03;;;3.60;;
47844;SDS011;33605;48.822;8.796;2023-06-14T14:48:32;4.57;;;4.17;;
47844;SDS011;33605;48.822;8.796;2023-06-14T14:50:58;4.27;;;3.87;;
47844;SDS011;33605;48.822;8.796;2023-06-14T14:53:23;6.03;;;4.07;;
47844;SDS011;33605;48.822;8.796;2023-06-14T14:55:49;4.30;;;3.90;;
47844;SDS011;33605;48.822;8.796;2023-06-14T14:58:15;4.10;;;3.70;;
47844;SDS011;33605;48.822;8.796;2023-06-14T15:00:47;4.40;;;3.80;;
47844;SDS011;33605;48.822;8.796;2023-06-14T15:03:14;4.87;;;4.10;;
47844;SDS011;33605;48.822;8.796;2023-06-14T15:05:40;4.37;;;3.97;;
47844;SDS011;33605;48.822;8.796;2023-06-14T15:08:06;4.67;;;3.37;;